createdAt,value
2024-02-22T00:01:44.467Z,1.95
2024-02-22T00:04:11.875Z,1.83
2024-02-22T00:06:41.428Z,1.60
2024-02-22T00:09:09.279Z,1.77
2024-02-22T00:11:36.534Z,2.03
2024-02-22T00:14:03.922Z,1.90
2024-02-22T00:16:30.812Z,1.90
2024-02-22T00:18:57.902Z,2.10
2024-02-22T00:21:24.948Z,2.40
2024-02-22T00:23:52.588Z,2.58
2024-02-22T00:26:19.497Z,2.10
2024-02-22T00:28:46.516Z,2.50
2024-02-22T00:31:13.523Z,2.80
2024-02-22T00:33:40.708Z,2.70
2024-02-22T00:36:07.752Z,2.28
2024-02-22T00:38:34.615Z,1.88
2024-02-22T00:41:01.527Z,1.90
2024-02-22T00:43:28.498Z,1.98
2024-02-22T00:45:55.514Z,2.10
2024-02-22T00:48:22.474Z,1.90
2024-02-22T00:50:49.727Z,2.28
2024-02-22T00:53:17.852Z,1.92
2024-02-22T00:55:44.915Z,2.05
2024-02-22T00:58:11.960Z,1.90
2024-02-22T01:00:38.904Z,1.70
2024-02-22T01:03:06.376Z,2.10
2024-02-22T01:05:33.668Z,2.20
2024-02-22T01:08:01.132Z,2.00
2024-02-22T01:10:28.110Z,1.90
2024-02-22T01:12:57.623Z,1.98
2024-02-22T01:15:24.519Z,2.03
2024-02-22T01:17:51.432Z,1.90
2024-02-22T01:20:18.670Z,1.90
2024-02-22T01:22:45.627Z,2.10
2024-02-22T01:25:13.016Z,2.10
2024-02-22T01:27:40.004Z,2.08
2024-02-22T01:30:09.260Z,2.05
2024-02-22T01:32:38.267Z,1.80
2024-02-22T01:35:07.393Z,2.08
2024-02-22T01:37:34.296Z,2.22
2024-02-22T01:40:01.217Z,1.85
2024-02-22T01:42:28.014Z,2.00
2024-02-22T01:44:54.841Z,2.08
2024-02-22T01:47:21.836Z,2.10
2024-02-22T01:49:49.677Z,2.00
2024-02-22T01:52:16.550Z,2.00
2024-02-22T01:54:43.519Z,2.08
2024-02-22T01:57:10.887Z,2.03
2024-02-22T01:59:37.828Z,2.15
2024-02-22T02:02:05.988Z,2.05
2024-02-22T02:04:33.192Z,2.00
2024-02-22T02:07:00.572Z,2.00
2024-02-22T02:09:28.154Z,2.08
2024-02-22T02:11:55.094Z,1.98
2024-02-22T02:14:22.082Z,2.00
2024-02-22T02:16:49.015Z,2.13
2024-02-22T02:19:21.008Z,2.00
2024-02-22T02:22:09.598Z,1.90
2024-02-22T02:25:02.556Z,1.92
2024-02-22T02:27:29.964Z,1.92
2024-02-22T02:29:56.821Z,1.70
2024-02-22T02:32:23.798Z,1.73
2024-02-22T02:34:50.883Z,1.90
2024-02-22T02:37:17.754Z,1.70
2024-02-22T02:39:44.636Z,1.80
2024-02-22T02:42:11.472Z,1.90
2024-02-22T02:44:38.320Z,2.08
2024-02-22T02:47:08.316Z,1.60
2024-02-22T02:49:35.226Z,1.58
2024-02-22T02:52:02.092Z,1.33
2024-02-22T02:54:28.933Z,1.50
2024-02-22T02:56:55.797Z,1.40
2024-02-22T02:59:22.749Z,1.35
2024-02-22T03:01:50.728Z,1.20
2024-02-22T03:04:21.585Z,1.20
2024-02-22T03:09:16.124Z,1.10
2024-02-22T03:11:43.237Z,1.20
2024-02-22T03:14:11.361Z,1.20
2024-02-22T03:16:39.212Z,1.05
2024-02-22T03:19:06.946Z,1.45
2024-02-22T03:21:33.907Z,1.25
2024-02-22T03:24:00.926Z,1.20
2024-02-22T03:26:27.824Z,1.00
2024-02-22T03:28:54.671Z,1.17
2024-02-22T03:31:24.231Z,1.10
2024-02-22T03:33:51.539Z,1.20
2024-02-22T03:36:18.634Z,1.30
2024-02-22T03:38:45.646Z,1.40
2024-02-22T03:41:25.574Z,1.20
2024-02-22T03:43:53.019Z,1.10
2024-02-22T03:46:19.864Z,1.25
2024-02-22T03:48:46.774Z,1.30
2024-02-22T03:51:13.615Z,1.40
2024-02-22T03:53:40.626Z,1.10
2024-02-22T03:56:07.716Z,1.30
2024-02-22T03:58:35.443Z,1.33
2024-02-22T04:01:02.460Z,1.10
2024-02-22T04:03:30.155Z,1.48
2024-02-22T04:05:58.336Z,1.50
2024-02-22T04:08:25.257Z,1.40
2024-02-22T04:10:52.136Z,1.27
2024-02-22T04:13:19.301Z,1.20
2024-02-22T04:15:46.698Z,1.30
2024-02-22T04:18:13.671Z,1.30
2024-02-22T04:20:40.600Z,1.45
2024-02-22T04:23:07.508Z,1.20
2024-02-22T04:25:34.419Z,1.17
2024-02-22T04:28:02.040Z,1.30
2024-02-22T04:30:28.856Z,1.50
2024-02-22T04:32:55.713Z,1.40
2024-02-22T04:35:22.754Z,1.50
2024-02-22T04:37:49.858Z,1.23
2024-02-22T04:40:16.980Z,1.48
2024-02-22T04:42:43.792Z,1.38
2024-02-22T04:45:10.743Z,1.30
2024-02-22T04:47:39.231Z,1.13
2024-02-22T04:50:07.138Z,1.50
2024-02-22T04:52:34.120Z,1.20
2024-02-22T04:55:05.037Z,1.30
2024-02-22T04:57:32.304Z,1.20
2024-02-22T04:59:59.303Z,1.40
2024-02-22T05:02:26.323Z,1.50
2024-02-22T05:04:53.351Z,1.40
2024-02-22T05:07:20.211Z,1.40
2024-02-22T05:09:47.165Z,1.30
2024-02-22T05:12:14.178Z,1.35
2024-02-22T05:14:45.320Z,1.20
2024-02-22T05:17:13.148Z,1.35
2024-02-22T05:19:41.292Z,1.50
2024-02-22T05:22:08.155Z,1.30
2024-02-22T05:24:35.155Z,1.50
2024-02-22T05:27:02.163Z,1.30
2024-02-22T05:29:28.998Z,1.27
2024-02-22T05:31:59.470Z,1.50
2024-02-22T05:34:26.871Z,1.60
2024-02-22T05:36:53.826Z,1.20
2024-02-22T05:39:20.700Z,1.50
2024-02-22T05:41:47.528Z,1.58
2024-02-22T05:44:15.255Z,1.40
2024-02-22T05:46:42.162Z,1.50
2024-02-22T05:49:09.287Z,1.80
2024-02-22T05:51:36.096Z,1.80
2024-02-22T05:54:02.935Z,1.70
2024-02-22T05:56:29.836Z,1.60
2024-02-22T05:58:56.740Z,1.60
2024-02-22T06:01:24.497Z,1.50
2024-02-22T06:03:51.445Z,1.30
2024-02-22T06:06:18.323Z,1.50
2024-02-22T06:08:45.214Z,1.42
2024-02-22T06:11:17.008Z,1.50
2024-02-22T06:13:44.160Z,1.48
2024-02-22T06:16:11.731Z,1.50
2024-02-22T06:18:39.063Z,1.40
2024-02-22T06:21:07.774Z,1.60
2024-02-22T06:23:35.707Z,1.40
2024-02-22T06:26:02.693Z,1.60
2024-02-22T06:28:29.629Z,1.58
2024-02-22T06:30:56.516Z,1.70
2024-02-22T06:33:24.431Z,1.50
2024-02-22T06:35:51.382Z,1.80
2024-02-22T06:38:18.312Z,1.52
2024-02-22T06:40:51.966Z,1.60
2024-02-22T06:43:19.178Z,1.60
2024-02-22T06:45:46.185Z,1.50
2024-02-22T06:48:13.306Z,1.50
2024-02-22T06:50:40.205Z,1.80
2024-02-22T06:53:08.024Z,1.90
2024-02-22T06:55:35.526Z,1.70
2024-02-22T06:58:05.832Z,1.75
2024-02-22T07:00:34.744Z,1.65
2024-02-22T07:03:05.492Z,1.50
2024-02-22T07:05:33.170Z,1.60
2024-02-22T07:08:00.544Z,1.60
2024-02-22T07:10:27.516Z,1.75
2024-02-22T07:12:54.714Z,1.70
2024-02-22T07:15:21.548Z,1.60
2024-02-22T07:17:48.601Z,1.50
2024-02-22T07:20:16.269Z,1.90
2024-02-22T07:22:44.496Z,1.80
2024-02-22T07:25:12.894Z,2.10
2024-02-22T07:27:41.507Z,1.80
2024-02-22T07:30:09.851Z,1.67
2024-02-22T07:32:36.860Z,1.70
2024-02-22T07:35:04.610Z,1.55
2024-02-22T07:37:31.649Z,2.00
2024-02-22T07:39:58.617Z,1.65
2024-02-22T07:42:25.750Z,1.50
2024-02-22T07:44:52.639Z,1.52
2024-02-22T07:47:19.631Z,1.60
2024-02-22T07:49:46.650Z,1.50
2024-02-22T07:52:13.543Z,1.52
2024-02-22T07:54:42.238Z,1.40
2024-02-22T07:57:09.185Z,1.60
2024-02-22T07:59:36.049Z,1.45
2024-02-22T08:02:03.734Z,1.70
2024-02-22T08:04:30.870Z,1.40
2024-02-22T08:06:57.988Z,1.50
2024-02-22T08:09:25.556Z,1.33
2024-02-22T08:11:53.247Z,1.58
2024-02-22T08:14:20.205Z,1.48
2024-02-22T08:16:48.140Z,1.35
2024-02-22T08:19:15.177Z,1.45
2024-02-22T08:21:42.631Z,1.40
2024-02-22T08:24:11.545Z,1.40
2024-02-22T08:26:38.843Z,1.40
2024-02-22T08:29:05.829Z,1.40
2024-02-22T08:31:33.080Z,1.40
2024-02-22T08:34:00.118Z,1.40
2024-02-22T08:36:26.948Z,1.10
2024-02-22T08:38:53.862Z,1.25
2024-02-22T08:41:20.914Z,1.40
2024-02-22T08:43:47.825Z,1.25
2024-02-22T08:46:14.746Z,1.30
2024-02-22T08:48:42.164Z,1.15
2024-02-22T08:51:14.991Z,2.03
2024-02-22T08:53:41.822Z,2.03
2024-02-22T08:56:11.494Z,2.17
2024-02-22T08:58:43.472Z,1.70
2024-02-22T09:01:11.056Z,1.50
2024-02-22T09:03:37.950Z,1.42
2024-02-22T09:06:05.106Z,1.25
2024-02-22T09:08:32.993Z,1.20
2024-02-22T09:10:59.998Z,1.10
2024-02-22T09:13:27.291Z,1.15
2024-02-22T09:15:54.118Z,0.90
2024-02-22T09:18:21.125Z,1.27
2024-02-22T09:20:50.479Z,1.10
2024-02-22T09:23:18.306Z,0.93
2024-02-22T09:25:45.397Z,1.10
2024-02-22T09:28:12.532Z,1.33
2024-02-22T09:30:39.395Z,0.98
2024-02-22T09:33:08.761Z,1.23
2024-02-22T09:35:35.831Z,1.00
2024-02-22T09:38:05.366Z,1.20
2024-02-22T09:40:32.749Z,1.13
2024-02-22T09:43:01.783Z,1.00
2024-02-22T09:45:28.653Z,0.98
2024-02-22T09:47:56.312Z,1.10
2024-02-22T09:50:23.300Z,1.10
2024-02-22T09:52:50.285Z,1.25
2024-02-22T09:55:18.672Z,1.40
2024-02-22T09:57:45.559Z,1.40
2024-02-22T10:00:14.328Z,1.15
2024-02-22T10:02:47.302Z,1.10
2024-02-22T10:05:14.812Z,1.45
2024-02-22T10:07:41.884Z,1.13
2024-02-22T10:10:08.787Z,0.98
2024-02-22T10:12:38.173Z,1.00
2024-02-22T10:15:10.391Z,1.08
2024-02-22T10:17:38.756Z,1.10
2024-02-22T10:20:11.660Z,0.82
2024-02-22T10:22:39.602Z,0.80
2024-02-22T10:25:11.515Z,1.25
2024-02-22T10:27:39.696Z,1.10
2024-02-22T10:30:11.413Z,1.20
2024-02-22T10:32:41.177Z,1.10
2024-02-22T10:35:09.745Z,1.10
2024-02-22T10:37:37.960Z,1.40
2024-02-22T10:40:06.936Z,1.20
2024-02-22T10:42:33.950Z,1.00
2024-02-22T10:45:01.057Z,1.00
2024-02-22T10:47:29.459Z,0.90
2024-02-22T10:49:57.853Z,1.08
2024-02-22T10:52:28.600Z,1.00
2024-02-22T10:55:00.528Z,0.80
2024-02-22T10:57:33.899Z,0.90
2024-02-22T11:00:03.021Z,0.82
2024-02-22T11:02:31.857Z,0.68
2024-02-22T11:05:08.856Z,1.10
2024-02-22T11:07:44.277Z,0.90
2024-02-22T11:10:12.283Z,0.90
2024-02-22T11:12:45.852Z,1.00
2024-02-22T11:15:15.289Z,0.98
2024-02-22T11:17:58.674Z,1.15
2024-02-22T11:20:34.594Z,1.08
2024-02-22T11:23:18.241Z,1.13
2024-02-22T11:25:45.674Z,0.80
2024-02-22T11:28:13.130Z,1.05
2024-02-22T11:30:42.060Z,1.10
2024-02-22T11:33:12.175Z,0.98
2024-02-22T11:35:39.399Z,0.85
2024-02-22T11:38:07.392Z,0.95
2024-02-22T11:40:36.747Z,1.10
2024-02-22T11:43:04.690Z,1.10
2024-02-22T11:45:32.537Z,1.58
2024-02-22T11:48:00.384Z,1.13
2024-02-22T11:50:32.700Z,1.50
2024-02-22T11:53:01.219Z,1.00
2024-02-22T11:55:28.976Z,1.65
2024-02-22T11:57:56.119Z,1.30
2024-02-22T12:00:23.195Z,1.10
2024-02-22T12:02:50.226Z,1.10
2024-02-22T12:05:19.519Z,1.30
2024-02-22T12:07:47.568Z,1.40
2024-02-22T12:10:14.665Z,1.60
2024-02-22T12:12:41.901Z,1.20
2024-02-22T12:15:12.199Z,2.15
2024-02-22T12:17:42.832Z,1.20
2024-02-22T12:20:14.364Z,1.10
2024-02-22T12:22:45.947Z,1.50
2024-02-22T12:25:12.885Z,1.25
2024-02-22T12:27:39.689Z,1.00
2024-02-22T12:30:07.149Z,1.17
2024-02-22T12:32:34.071Z,1.30
2024-02-22T12:35:01.137Z,1.48
2024-02-22T12:37:28.435Z,1.02
2024-02-22T12:39:55.442Z,1.20
2024-02-22T12:42:22.465Z,1.90
2024-02-22T12:44:49.734Z,1.48
2024-02-22T12:47:16.565Z,1.40
2024-02-22T12:49:44.063Z,1.10
2024-02-22T12:52:13.155Z,1.20
2024-02-22T12:54:40.044Z,1.13
2024-02-22T12:57:07.094Z,1.20
2024-02-22T12:59:33.917Z,1.30
2024-02-22T13:02:01.038Z,1.30
2024-02-22T13:04:28.198Z,1.00
2024-02-22T13:06:55.214Z,1.00
2024-02-22T13:09:22.082Z,1.10
2024-02-22T13:11:49.159Z,1.08
2024-02-22T13:14:16.148Z,1.63
2024-02-22T13:16:43.174Z,1.30
2024-02-22T13:19:10.386Z,1.10
2024-02-22T13:21:37.470Z,1.30
2024-02-22T13:24:04.586Z,1.10
2024-02-22T13:26:31.572Z,1.00
2024-02-22T13:28:58.539Z,1.08
2024-02-22T13:31:25.461Z,1.33
2024-02-22T13:33:52.748Z,1.02
2024-02-22T13:36:19.730Z,1.20
2024-02-22T13:38:46.531Z,1.40
2024-02-22T13:41:14.163Z,1.30
2024-02-22T13:43:42.798Z,1.92
2024-02-22T13:46:10.242Z,1.50
2024-02-22T13:48:37.767Z,1.70
2024-02-22T13:51:05.848Z,1.80
2024-02-22T13:53:33.009Z,1.90
2024-02-22T13:56:00.230Z,1.63
2024-02-22T13:58:27.248Z,1.58
2024-02-22T14:00:54.138Z,1.58
2024-02-22T14:03:21.114Z,2.00
2024-02-22T14:05:52.462Z,2.10
2024-02-22T14:08:21.889Z,1.08
2024-02-22T14:10:48.950Z,1.25
2024-02-22T14:13:15.933Z,1.05
2024-02-22T14:15:44.742Z,2.30
2024-02-22T14:18:11.852Z,1.10
2024-02-22T14:20:39.102Z,1.30
2024-02-22T14:23:06.197Z,0.80
2024-02-22T14:25:33.140Z,0.75
2024-02-22T14:27:59.981Z,1.00
2024-02-22T14:30:26.853Z,0.63
2024-02-22T14:32:54.734Z,0.60
2024-02-22T14:35:21.732Z,1.60
2024-02-22T14:37:48.769Z,0.90
2024-02-22T14:40:18.542Z,0.50
2024-02-22T14:42:45.474Z,1.27
2024-02-22T14:45:12.397Z,1.05
2024-02-22T14:47:39.385Z,0.88
2024-02-22T14:50:08.409Z,1.17
2024-02-22T14:52:35.346Z,0.70
2024-02-22T14:55:04.027Z,1.00
2024-02-22T14:57:33.416Z,0.70
2024-02-22T15:00:00.991Z,0.60
2024-02-22T15:02:28.152Z,1.48
2024-02-22T15:04:55.455Z,0.88
2024-02-22T15:07:24.635Z,0.80
2024-02-22T15:09:53.214Z,1.02
2024-02-22T15:12:20.160Z,1.10
2024-02-22T15:14:47.270Z,1.40
2024-02-22T15:17:14.108Z,0.88
2024-02-22T15:19:41.072Z,0.95
2024-02-22T15:22:08.200Z,2.13
2024-02-22T15:24:35.160Z,1.55
2024-02-22T15:27:03.059Z,1.25
2024-02-22T15:29:30.814Z,1.92
2024-02-22T15:31:57.758Z,2.00
2024-02-22T15:34:25.678Z,2.75
2024-02-22T15:36:56.041Z,2.63
2024-02-22T15:39:23.828Z,2.92
2024-02-22T15:41:50.666Z,2.00
2024-02-22T15:44:18.147Z,1.17
2024-02-22T15:46:45.610Z,1.73
2024-02-22T15:49:15.894Z,1.40
2024-02-22T15:51:43.803Z,1.10
2024-02-22T15:54:14.138Z,0.95
2024-02-22T15:56:41.307Z,0.65
2024-02-22T15:59:08.234Z,0.77
2024-02-22T16:01:35.434Z,0.70
2024-02-22T16:04:04.562Z,0.95
2024-02-22T16:06:32.738Z,1.00
2024-02-22T16:09:00.499Z,1.00
2024-02-22T16:11:28.373Z,0.80
2024-02-22T16:13:57.932Z,1.10
2024-02-22T16:16:25.223Z,0.75
2024-02-22T16:18:55.918Z,0.63
2024-02-22T16:23:52.949Z,1.20
2024-02-22T16:26:20.709Z,1.00
2024-02-22T16:28:48.312Z,0.85
2024-02-22T16:31:16.856Z,0.80
2024-02-22T16:33:44.332Z,0.70
2024-02-22T16:36:12.521Z,0.82
2024-02-22T16:38:46.213Z,0.63
2024-02-22T16:41:31.378Z,0.80
2024-02-22T16:43:58.596Z,0.80
2024-02-22T16:46:25.942Z,1.00
2024-02-22T16:48:53.359Z,0.65
2024-02-22T16:51:20.618Z,1.30
2024-02-22T16:53:49.974Z,0.68
2024-02-22T16:56:17.538Z,0.70
2024-02-22T16:58:44.667Z,0.60
2024-02-22T17:01:11.684Z,0.68
2024-02-22T17:03:38.709Z,0.60
2024-02-22T17:06:05.719Z,0.70
2024-02-22T17:08:32.873Z,0.47
2024-02-22T17:10:59.970Z,0.80
2024-02-22T17:13:28.918Z,0.63
2024-02-22T17:15:56.535Z,0.55
2024-02-22T17:18:23.533Z,1.08
2024-02-22T17:20:50.406Z,0.80
2024-02-22T17:23:17.376Z,1.00
2024-02-22T17:25:44.786Z,0.88
2024-02-22T17:28:11.751Z,1.10
2024-02-22T17:30:38.698Z,0.75
2024-02-22T17:33:05.847Z,1.10
2024-02-22T17:35:32.992Z,1.40
2024-02-22T17:38:00.216Z,1.60
2024-02-22T17:40:27.067Z,1.42
2024-02-22T17:42:53.978Z,1.40
2024-02-22T17:45:20.856Z,1.08
2024-02-22T17:47:47.789Z,1.52
2024-02-22T17:50:15.666Z,1.50
2024-02-22T17:52:42.608Z,1.42
2024-02-22T17:55:12.185Z,1.35
2024-02-22T17:57:39.237Z,1.25
2024-02-22T18:00:06.935Z,1.60
2024-02-22T18:02:37.090Z,1.08
2024-02-22T18:05:04.341Z,1.02
2024-02-22T18:07:31.551Z,1.50
2024-02-22T18:09:59.206Z,1.17
2024-02-22T18:12:26.299Z,0.88
2024-02-22T18:14:54.216Z,0.90
2024-02-22T18:17:21.166Z,1.05
2024-02-22T18:19:48.081Z,0.90
2024-02-22T18:22:15.062Z,0.88
2024-02-22T18:24:44.696Z,1.10
2024-02-22T18:27:11.637Z,1.00
2024-02-22T18:29:39.637Z,0.80
2024-02-22T18:32:07.276Z,1.00
2024-02-22T18:34:34.447Z,0.77
2024-02-22T18:37:03.455Z,0.70
2024-02-22T18:39:31.563Z,0.70
2024-02-22T18:41:58.787Z,0.50
2024-02-22T18:44:25.895Z,0.80
2024-02-22T18:46:52.805Z,0.80
2024-02-22T18:49:21.467Z,0.80
2024-02-22T18:51:50.276Z,0.60
2024-02-22T18:54:18.368Z,0.80
2024-02-22T18:56:45.429Z,0.90
2024-02-22T18:59:12.281Z,0.80
2024-02-22T19:01:39.251Z,1.00
2024-02-22T19:04:06.647Z,0.50
2024-02-22T19:06:34.165Z,0.82
2024-02-22T19:09:00.996Z,0.70
2024-02-22T19:11:28.013Z,0.73
2024-02-22T19:13:55.812Z,0.63
2024-02-22T19:16:25.980Z,0.90
2024-02-22T19:18:53.619Z,0.68
2024-02-22T19:21:20.557Z,0.47
2024-02-22T19:23:47.367Z,0.70
2024-02-22T19:26:14.229Z,0.88
2024-02-22T19:28:41.127Z,1.15
2024-02-22T19:31:07.929Z,0.73
2024-02-22T19:33:35.094Z,1.10
2024-02-22T19:36:02.762Z,0.80
2024-02-22T19:38:29.700Z,1.10
2024-02-22T19:40:56.561Z,0.90
2024-02-22T19:43:23.422Z,1.13
2024-02-22T19:45:50.302Z,0.93
2024-02-22T19:48:17.576Z,0.90
2024-02-22T19:50:46.061Z,1.20
2024-02-22T19:53:13.449Z,1.00
2024-02-22T19:55:42.286Z,1.20
2024-02-22T19:58:10.781Z,1.10
2024-02-22T20:00:37.717Z,1.02
2024-02-22T20:03:04.668Z,1.00
2024-02-22T20:05:32.716Z,1.67
2024-02-22T20:07:59.693Z,1.40
2024-02-22T20:10:27.704Z,1.70
2024-02-22T20:12:54.850Z,1.02
2024-02-22T20:15:22.317Z,1.10
2024-02-22T20:17:49.121Z,1.30
2024-02-22T20:20:16.563Z,1.02
2024-02-22T20:22:43.850Z,0.93
2024-02-22T20:25:13.676Z,0.80
2024-02-22T20:27:40.525Z,0.93
2024-02-22T20:30:12.888Z,1.10
2024-02-22T20:32:40.125Z,0.75
2024-02-22T20:35:14.074Z,0.40
2024-02-22T20:37:45.350Z,1.00
2024-02-22T20:40:12.760Z,0.93
2024-02-22T20:42:39.581Z,0.90
2024-02-22T20:45:07.121Z,1.20
2024-02-22T20:47:34.147Z,1.00
2024-02-22T20:50:01.210Z,1.00
2024-02-22T20:52:28.233Z,0.95
2024-02-22T20:54:55.154Z,1.00
2024-02-22T20:57:21.970Z,1.20
2024-02-22T20:59:48.820Z,1.20
2024-02-22T21:02:16.938Z,1.15
2024-02-22T21:04:43.982Z,1.00
2024-02-22T21:07:11.735Z,1.13
2024-02-22T21:09:39.680Z,1.20
2024-02-22T21:12:06.769Z,1.10
2024-02-22T21:14:33.623Z,1.00
2024-02-22T21:17:00.496Z,1.10
2024-02-22T21:19:27.360Z,1.30
2024-02-22T21:21:54.299Z,1.05
2024-02-22T21:24:21.173Z,1.10
2024-02-22T21:26:48.048Z,1.20
2024-02-22T21:29:15.399Z,1.02
2024-02-22T21:31:42.312Z,1.13
2024-02-22T21:34:09.870Z,1.10
2024-02-22T21:36:36.780Z,1.00
2024-02-22T21:39:07.270Z,1.10
2024-02-22T21:41:35.378Z,1.10
2024-02-22T21:44:03.375Z,1.15
2024-02-22T21:46:30.641Z,1.08
2024-02-22T21:48:57.638Z,1.30
2024-02-22T21:51:24.554Z,1.08
2024-02-22T21:53:51.398Z,1.30
2024-02-22T21:56:18.375Z,1.40
2024-02-22T21:58:45.242Z,1.40
2024-02-22T22:01:12.575Z,1.23
2024-02-22T22:03:39.473Z,1.20
2024-02-22T22:06:06.413Z,1.02
2024-02-22T22:08:33.581Z,1.50
2024-02-22T22:11:02.417Z,1.30
2024-02-22T22:13:29.234Z,1.25
2024-02-22T22:15:56.086Z,1.20
2024-02-22T22:18:23.048Z,1.10
2024-02-22T22:20:49.930Z,1.40
2024-02-22T22:23:16.792Z,1.27
2024-02-22T22:25:43.697Z,1.08
2024-02-22T22:28:10.523Z,1.20
2024-02-22T22:30:37.378Z,1.30
2024-02-22T22:33:04.449Z,1.13
2024-02-22T22:35:31.531Z,1.20
2024-02-22T22:37:58.430Z,1.20
2024-02-22T22:40:25.271Z,1.20
2024-02-22T22:42:52.108Z,1.08
2024-02-22T22:45:19.188Z,1.20
2024-02-22T22:47:46.596Z,1.30
2024-02-22T22:50:14.364Z,1.20
2024-02-22T22:52:41.534Z,1.88
2024-02-22T22:55:08.707Z,2.60
2024-02-22T22:57:35.582Z,4.13
2024-02-22T23:00:08.433Z,2.03
2024-02-22T23:02:35.338Z,1.30
2024-02-22T23:05:03.321Z,1.10
2024-02-22T23:07:30.159Z,0.95
2024-02-22T23:09:57.053Z,0.80
2024-02-22T23:12:24.256Z,0.52
2024-02-22T23:14:51.138Z,0.80
2024-02-22T23:17:18.036Z,0.80
2024-02-22T23:19:44.930Z,0.75
2024-02-22T23:22:11.874Z,0.50
2024-02-22T23:24:38.745Z,0.32
2024-02-22T23:27:05.908Z,0.55
2024-02-22T23:29:32.736Z,0.70
2024-02-22T23:31:59.680Z,0.52
2024-02-22T23:34:26.558Z,0.20
2024-02-22T23:36:53.407Z,0.50
2024-02-22T23:39:20.237Z,0.60
2024-02-22T23:41:47.528Z,0.70
2024-02-22T23:44:14.439Z,0.50
2024-02-22T23:46:41.273Z,0.80
2024-02-22T23:49:08.165Z,0.60
2024-02-22T23:51:35.069Z,0.82
2024-02-22T23:54:05.877Z,0.90
2024-02-22T23:56:32.963Z,0.68
2024-02-22T23:58:59.868Z,0.57
